Terminal Aerodrome Forecast
Issued by NWS Burlington, VT

Home | Current Version | Previous Version | Text Only | Print | Product List | Glossary On
Versions: 1 2 3 4 5 6 7 8 9 10 11 12 13 14 15 16 17 18 19 20 21 22 23 24 25 26 27 28
145
FTUS41 KBTV 231141
TAFBTV
TAF
KBTV 231141Z 2312/2412 12007KT P6SM OVC040
     FM231600 19007KT P6SM OVC040
     FM232100 07008KT P6SM OVC035
     FM240900 02005KT 6SM -SN OVC030
     FM241000 02009KT 1SM -SN BR OVC020=

USA.gov is the U.S. government's official web portal to all federal, state and local government web resources and services.